Aérodrome :
LOGIN :

S'inscrire | Disclaimer

   EN    FR    IT 

 










Légende :    VFR   VFR Marginal   IFR   IFR Intensif   IFR Très Intensif
Visi : 
Plafond : 
>= 8 km
>= 3000ft
5 à 8 km
1000 à 3000 ft
1500m à 5 km
500 à 1000 ft
800 à 1500m
200 à 500 ft
< 800m
< 200 ft
Symboles :   Orages  Brouillard  Fortes neiges  Fortes précipitations  Vent > 20 kt
SIGMETs :   Divers  Orages  Givrage  Turbulence  Onde Orograph.  Cendres Volcan.







- Altitude de l'aérodrome : 56 ft
- Code IATA : ODE


EKOD - Odense

DERNIER METAR :
  • 221239Z 21015KT 4000 -DZRA SCT005 OVC007 10/10 Q0999

METARs EXPIRÉS :
  • 221220Z 20011KT 180V240 9000 -DZRA SCT005 OVC008 10/10 Q0999
  • 221150Z 21011KT 2800 -DZRA SCT005 OVC007 10/10 Q0999
  • 221120Z 21011KT 0000 R06///// R24///// -DZRA SCT005 OVC007 10/10 Q0999
  • 221050Z 21011KT 3600 -DZRA SCT005 OVC009 10/10 Q0999
  • 221020Z 21010KT 4000 -DZRA SCT005 BKN008 11/10 Q0999
  • 220950Z 21011KT 180V240 9999 BKN005 10/10 Q0999

TAF TAF EKOD
Valide du 22 à 12h jusqu'au 22 à 17h UTC


221152Z 2212/2217 23015KT 8000 BKN010
TEMPO 2212/2217 2500 RADZ BKN005
Pas de NOTAMs connus pour ce terrain.



MET'MAP, la Météo Aéronautique d'un coup d'oeil ! - Copyright ORBIFLY Décembre 2007 - Disclaimer

ORBIFLY MET'MAP TEAM :

Programmation & Développement : Alexandra Zaïnal
Conception & Développement : Baudouin d'Aumeries
Co-Programmation & Développement : Marc-Olivier Méhu
Soutien technique & logistique : Manuel Goepfert

Contact : metmap@orbifly.com




SOURCES & CREDITS :

   NOAA